createdAt,value
2019-04-21T00:01:52.212Z,15.33
2019-04-21T00:02:50.932Z,15.24
2019-04-21T00:03:55.579Z,15.27
2019-04-21T00:05:14.119Z,15.29
2019-04-21T00:06:11.999Z,15.17
2019-04-21T00:07:10.418Z,15.18
2019-04-21T00:08:19.401Z,15.10
2019-04-21T00:10:15.993Z,15.17
2019-04-21T00:12:12.425Z,15.10
2019-04-21T00:13:08.986Z,15.03
2019-04-21T00:14:03.748Z,15.09
2019-04-21T00:15:02.017Z,15.06
2019-04-21T00:15:57.314Z,15.09
2019-04-21T00:16:58.364Z,15.03
2019-04-21T00:17:54.782Z,15.03
2019-04-21T00:18:59.922Z,15.00
2019-04-21T00:19:55.414Z,14.96
2019-04-21T00:20:55.211Z,14.96
2019-04-21T00:21:55.422Z,14.89
2019-04-21T00:23:04.870Z,14.96
2019-04-21T00:24:05.882Z,14.94
2019-04-21T00:25:07.736Z,14.96
2019-04-21T00:26:02.026Z,14.85
2019-04-21T00:27:12.513Z,14.86
2019-04-21T00:28:13.976Z,14.89
2019-04-21T00:29:21.248Z,14.86
2019-04-21T00:30:10.936Z,14.85
2019-04-21T00:31:12.843Z,14.86
2019-04-21T00:32:08.706Z,14.86
2019-04-21T00:32:59.946Z,14.78
2019-04-21T00:33:51.967Z,14.81
2019-04-21T00:34:56.598Z,14.85
2019-04-21T00:35:59.313Z,14.81
2019-04-21T00:37:03.078Z,14.70
2019-04-21T00:38:14.873Z,14.63
2019-04-21T00:39:20.960Z,14.72
2019-04-21T00:40:09.470Z,14.69
2019-04-21T00:41:15.562Z,14.69
2019-04-21T00:42:12.862Z,14.63
2019-04-21T00:43:12.257Z,14.65
2019-04-21T00:44:04.749Z,14.66
2019-04-21T00:45:09.766Z,14.59
2019-04-21T00:45:59.925Z,14.50
2019-04-21T00:47:01.968Z,14.59
2019-04-21T00:48:10.054Z,14.59
2019-04-21T00:49:08.511Z,14.55
2019-04-21T00:50:12.735Z,14.53
2019-04-21T00:52:24.642Z,14.45
2019-04-21T00:53:11.747Z,14.47
2019-04-21T00:54:18.053Z,14.45
2019-04-21T00:55:23.087Z,14.35
2019-04-21T00:56:15.625Z,14.41
2019-04-21T00:57:19.626Z,14.32
2019-04-21T00:58:18.416Z,14.33
2019-04-21T00:59:13.830Z,14.35
2019-04-21T01:01:09.993Z,14.28
2019-04-21T01:02:10.530Z,14.30
2019-04-21T01:03:14.712Z,14.23
2019-04-21T01:04:09.726Z,14.20
2019-04-21T01:05:16.583Z,14.14
2019-04-21T01:06:16.319Z,14.29
2019-04-21T01:07:12.469Z,14.14
2019-04-21T01:08:09.411Z,14.22
2019-04-21T01:09:09.410Z,14.20
2019-04-21T01:10:05.196Z,14.18
2019-04-21T01:11:15.569Z,14.15
2019-04-21T01:12:12.556Z,14.07
2019-04-21T01:13:18.386Z,14.04
2019-04-21T01:14:16.618Z,14.03
2019-04-21T01:15:22.670Z,13.95
2019-04-21T01:16:13.806Z,13.92
2019-04-21T01:17:14.561Z,13.79
2019-04-21T01:18:09.270Z,13.86
2019-04-21T01:19:13.936Z,13.81
2019-04-21T01:20:01.755Z,13.71
2019-04-21T01:20:50.078Z,13.74
2019-04-21T01:21:49.029Z,13.74
2019-04-21T01:22:49.023Z,13.68
2019-04-21T01:23:49.007Z,13.68
2019-04-21T01:25:01.328Z,13.65
2019-04-21T01:26:05.218Z,13.67
2019-04-21T01:27:02.343Z,13.59
2019-04-21T01:28:03.716Z,13.52
2019-04-21T01:29:08.663Z,13.59
2019-04-21T01:30:14.183Z,13.56
2019-04-21T01:31:11.119Z,13.50
2019-04-21T01:32:18.754Z,13.50
2019-04-21T01:33:12.378Z,13.47
2019-04-21T01:34:08.404Z,13.46
2019-04-21T01:35:10.134Z,13.37
2019-04-21T01:36:09.428Z,13.30
2019-04-21T01:37:04.079Z,13.23
2019-04-21T01:38:10.933Z,13.11
2019-04-21T01:39:13.709Z,13.15
2019-04-21T01:40:16.894Z,13.09
2019-04-21T01:41:17.980Z,13.12
2019-04-21T01:42:09.513Z,13.08
2019-04-21T01:43:07.776Z,12.98
2019-04-21T01:44:06.213Z,13.04
2019-04-21T01:45:12.076Z,13.04
2019-04-21T01:46:11.242Z,12.98
2019-04-21T01:47:07.111Z,13.00
2019-04-21T01:48:06.452Z,12.94
2019-04-21T01:49:04.441Z,12.94
2019-04-21T01:50:01.576Z,12.95
2019-04-21T01:51:05.391Z,12.91
2019-04-21T01:52:22.206Z,12.95
2019-04-21T01:53:15.473Z,12.94
2019-04-21T01:54:15.993Z,12.94
2019-04-21T01:55:13.833Z,12.93
2019-04-21T01:56:11.766Z,12.90
2019-04-21T01:57:07.555Z,12.82
2019-04-21T01:58:02.068Z,12.85
2019-04-21T01:58:59.240Z,12.93
2019-04-21T02:00:02.689Z,12.87
2019-04-21T02:01:04.710Z,12.79
2019-04-21T02:02:11.008Z,12.85
2019-04-21T02:03:30.693Z,12.79
2019-04-21T02:04:06.741Z,12.82
2019-04-21T02:05:17.428Z,12.68
2019-04-21T02:06:18.431Z,12.68
2019-04-21T02:07:13.101Z,12.55
2019-04-21T02:08:05.107Z,12.50
2019-04-21T02:09:10.170Z,12.45
2019-04-21T02:10:11.028Z,12.42
2019-04-21T02:11:12.635Z,12.29
2019-04-21T02:12:14.781Z,12.31
2019-04-21T02:13:09.059Z,12.22
2019-04-21T02:14:09.928Z,12.13
2019-04-21T02:15:11.105Z,12.21
2019-04-21T02:16:13.772Z,12.13
2019-04-21T02:17:14.504Z,12.13
2019-04-21T02:18:10.555Z,12.06
2019-04-21T02:20:02.755Z,11.99
2019-04-21T02:20:57.946Z,11.95
2019-04-21T02:22:06.369Z,11.94
2019-04-21T02:24:17.096Z,11.88
2019-04-21T02:25:18.206Z,11.87
2019-04-21T02:26:09.724Z,11.80
2019-04-21T02:27:14.952Z,11.90
2019-04-21T02:28:12.309Z,11.80
2019-04-21T02:29:19.574Z,11.94
2019-04-21T02:30:24.790Z,12.00
2019-04-21T02:31:24.807Z,11.99
2019-04-21T02:32:38.956Z,11.95
2019-04-21T02:33:26.147Z,12.09
2019-04-21T02:34:16.123Z,12.00
2019-04-21T02:35:40.695Z,12.04
2019-04-21T02:38:34.298Z,12.12
2019-04-21T02:40:22.338Z,12.17
2019-04-21T02:41:26.479Z,12.15
2019-04-21T02:42:18.703Z,12.13
2019-04-21T02:43:34.299Z,12.22
2019-04-21T02:44:30.117Z,12.13
2019-04-21T02:45:25.141Z,12.17
2019-04-21T02:46:23.894Z,12.10
2019-04-21T02:47:31.209Z,12.20
2019-04-21T02:48:19.289Z,12.13
2019-04-21T02:51:21.953Z,12.21
2019-04-21T02:52:39.376Z,12.21
2019-04-21T02:53:45.800Z,12.21
2019-04-21T02:54:41.713Z,12.27
2019-04-21T02:55:17.874Z,12.29
2019-04-21T02:56:27.861Z,12.39
2019-04-21T02:57:17.568Z,12.21
2019-04-21T02:58:32.002Z,12.25
2019-04-21T03:02:30.951Z,12.24
2019-04-21T03:03:21.409Z,12.25
2019-04-21T03:04:24.771Z,12.22
2019-04-21T03:05:36.416Z,12.17
2019-04-21T03:06:27.026Z,12.22
2019-04-21T03:08:32.157Z,12.18
2019-04-21T03:09:24.367Z,12.24
2019-04-21T03:10:26.722Z,12.27
2019-04-21T03:11:14.089Z,12.24
2019-04-21T03:13:21.846Z,12.20
2019-04-21T03:14:31.059Z,12.10
2019-04-21T03:15:23.423Z,12.15
2019-04-21T03:16:25.114Z,12.04
2019-04-21T03:17:24.799Z,12.09
2019-04-21T03:18:27.990Z,12.06
2019-04-21T03:20:29.245Z,11.91
2019-04-21T03:22:20.698Z,11.94
2019-04-21T03:24:17.684Z,11.84
2019-04-21T03:26:36.213Z,11.80
2019-04-21T03:28:22.649Z,11.73
2019-04-21T03:29:19.750Z,11.73
2019-04-21T03:30:26.353Z,11.78
2019-04-21T03:31:42.224Z,11.77
2019-04-21T03:32:50.647Z,11.73
2019-04-21T03:34:02.487Z,11.62
2019-04-21T03:36:41.390Z,11.62
2019-04-21T03:37:23.142Z,11.63
2019-04-21T03:38:18.873Z,11.65
2019-04-21T03:39:21.663Z,11.60
2019-04-21T03:40:18.634Z,11.60
2019-04-21T03:41:18.904Z,11.59
2019-04-21T03:42:27.044Z,11.62
2019-04-21T03:43:20.881Z,11.60
2019-04-21T03:45:25.196Z,11.54
2019-04-21T03:46:27.932Z,11.48
2019-04-21T03:47:23.503Z,11.36
2019-04-21T03:48:17.318Z,11.47
2019-04-21T03:50:22.688Z,11.40
2019-04-21T03:51:21.545Z,11.33
2019-04-21T03:52:19.439Z,11.40
2019-04-21T03:53:22.555Z,11.37
2019-04-21T03:54:16.123Z,11.29
2019-04-21T03:57:50.492Z,11.14
2019-04-21T03:58:41.903Z,11.19
2019-04-21T03:59:26.419Z,11.19
2019-04-21T04:01:35.172Z,11.12
2019-04-21T04:02:36.610Z,11.17
2019-04-21T04:05:45.299Z,11.18
2019-04-21T04:06:25.975Z,11.14
2019-04-21T04:07:44.104Z,11.15
2019-04-21T04:08:44.181Z,11.07
2019-04-21T04:11:00.142Z,11.10
2019-04-21T04:11:43.775Z,11.08
2019-04-21T04:12:28.552Z,11.10
2019-04-21T04:13:37.331Z,11.11
2019-04-21T04:14:33.485Z,11.11
2019-04-21T04:15:45.415Z,11.10
2019-04-21T04:16:26.901Z,11.14
2019-04-21T04:17:27.037Z,11.14
2019-04-21T04:18:39.384Z,11.14
2019-04-21T04:19:33.907Z,11.14
2019-04-21T04:20:33.268Z,11.18
2019-04-21T04:21:37.166Z,11.17
2019-04-21T04:22:31.344Z,11.22
2019-04-21T04:23:34.020Z,11.14
2019-04-21T04:24:34.213Z,11.12
2019-04-21T04:25:27.422Z,11.19
2019-04-21T04:26:31.445Z,11.22
2019-04-21T04:27:49.489Z,11.22
2019-04-21T04:29:24.586Z,11.26
2019-04-21T04:30:32.023Z,11.19
2019-04-21T04:32:28.536Z,11.30
2019-04-21T04:33:46.091Z,11.23
2019-04-21T04:34:27.551Z,11.23
2019-04-21T04:35:40.531Z,11.26
2019-04-21T04:37:32.106Z,11.37
2019-04-21T04:38:33.954Z,11.19
2019-04-21T04:41:32.911Z,11.27
2019-04-21T04:42:39.214Z,11.26
2019-04-21T04:43:31.081Z,11.29
2019-04-21T04:44:46.556Z,11.32
2019-04-21T04:45:37.331Z,11.33
2019-04-21T04:46:29.003Z,11.33
2019-04-21T04:47:24.350Z,11.27
2019-04-21T04:48:28.797Z,11.32
2019-04-21T04:49:43.443Z,11.29
2019-04-21T04:50:35.910Z,11.29
2019-04-21T04:52:34.515Z,11.26
2019-04-21T04:54:39.878Z,11.19
2019-04-21T04:55:26.113Z,11.29
2019-04-21T04:56:31.454Z,11.27
2019-04-21T04:57:45.173Z,11.35
2019-04-21T04:58:56.198Z,11.22
2019-04-21T05:01:37.688Z,11.29
2019-04-21T05:02:33.690Z,11.30
2019-04-21T05:03:39.871Z,11.29
2019-04-21T05:04:37.455Z,11.23
2019-04-21T05:05:29.939Z,11.26
2019-04-21T05:08:42.284Z,11.26
2019-04-21T05:10:41.105Z,11.18
2019-04-21T05:11:39.798Z,11.23
2019-04-21T05:12:32.517Z,11.11
2019-04-21T05:13:26.001Z,11.27
2019-04-21T05:14:33.952Z,11.32
2019-04-21T05:15:23.953Z,11.27
2019-04-21T05:17:38.598Z,11.27
2019-04-21T05:18:35.087Z,11.36
2019-04-21T05:20:45.868Z,11.22
2019-04-21T05:22:22.129Z,11.43
2019-04-21T05:23:18.226Z,11.37
2019-04-21T05:24:18.437Z,11.41
2019-04-21T05:25:13.485Z,11.48
2019-04-21T05:26:09.817Z,11.48
2019-04-21T05:27:12.494Z,11.43
2019-04-21T05:28:11.328Z,11.48
2019-04-21T05:29:10.987Z,11.52
2019-04-21T05:30:24.874Z,11.57
2019-04-21T05:31:20.865Z,11.52
2019-04-21T05:32:22.927Z,11.52
2019-04-21T05:33:20.849Z,11.63
2019-04-21T05:34:18.994Z,11.57
2019-04-21T05:35:20.066Z,11.66
2019-04-21T05:36:20.984Z,11.68
2019-04-21T05:37:21.697Z,11.65
2019-04-21T05:38:16.765Z,11.70
2019-04-21T05:39:14.719Z,11.68
2019-04-21T05:40:15.750Z,11.72
2019-04-21T05:41:10.068Z,11.73
2019-04-21T05:42:04.959Z,11.80
2019-04-21T05:43:26.371Z,11.81
2019-04-21T05:44:28.035Z,11.83
2019-04-21T05:45:25.393Z,11.88
2019-04-21T05:46:20.984Z,11.83
2019-04-21T05:48:23.199Z,12.00
2019-04-21T05:49:14.057Z,11.95
2019-04-21T05:50:20.708Z,12.07
2019-04-21T05:51:14.672Z,12.07
2019-04-21T05:52:14.542Z,12.12
2019-04-21T05:53:26.755Z,12.13
2019-04-21T05:54:29.851Z,12.20
2019-04-21T05:55:24.476Z,12.20
2019-04-21T05:56:22.973Z,12.18
2019-04-21T05:57:15.002Z,12.25
2019-04-21T05:58:12.069Z,12.36
2019-04-21T05:59:13.734Z,12.40
2019-04-21T06:00:31.012Z,12.46
2019-04-21T06:01:31.466Z,12.54
2019-04-21T06:02:24.328Z,12.58
2019-04-21T06:03:29.299Z,12.64
2019-04-21T06:04:26.498Z,12.65
2019-04-21T06:07:25.555Z,12.70
2019-04-21T06:08:17.918Z,12.82
2019-04-21T06:09:22.536Z,12.78
2019-04-21T06:10:20.454Z,12.87
2019-04-21T06:12:23.534Z,12.97
2019-04-21T06:13:26.844Z,12.98
2019-04-21T06:14:21.708Z,13.00
2019-04-21T06:15:19.659Z,13.03
2019-04-21T06:16:21.693Z,12.98
2019-04-21T06:17:25.552Z,13.11
2019-04-21T06:18:27.047Z,13.05
2019-04-21T06:19:29.378Z,13.12
2019-04-21T06:20:21.197Z,13.22
2019-04-21T06:21:16.465Z,13.09
2019-04-21T06:23:21.339Z,13.28
2019-04-21T06:24:15.724Z,13.19
2019-04-21T06:25:46.468Z,13.27
2019-04-21T06:27:27.610Z,13.31
2019-04-21T06:28:21.053Z,13.38
2019-04-21T06:29:23.650Z,13.49
2019-04-21T06:30:19.159Z,13.52
2019-04-21T06:31:33.868Z,13.52
2019-04-21T06:32:30.310Z,13.57
2019-04-21T06:33:19.905Z,13.57
2019-04-21T06:34:25.046Z,13.68
2019-04-21T06:38:43.309Z,13.92
2019-04-21T06:39:31.928Z,13.92
2019-04-21T06:40:37.357Z,13.99
2019-04-21T06:41:32.652Z,14.04
2019-04-21T06:42:25.703Z,14.08
2019-04-21T06:43:37.274Z,14.14
2019-04-21T06:44:35.182Z,14.12
2019-04-21T06:45:36.595Z,14.22
2019-04-21T06:46:40.733Z,14.23
2019-04-21T06:47:39.451Z,14.20
2019-04-21T06:48:32.712Z,14.29
2019-04-21T06:49:27.588Z,14.32
2019-04-21T06:50:30.230Z,14.36
2019-04-21T06:53:39.741Z,14.53
2019-04-21T06:54:34.152Z,14.50
2019-04-21T06:55:26.822Z,14.60
2019-04-21T06:56:36.332Z,14.69
2019-04-21T06:58:26.204Z,14.73
2019-04-21T06:59:29.390Z,14.79
2019-04-21T07:00:24.698Z,14.91
2019-04-21T07:01:31.290Z,14.86
2019-04-21T07:02:43.753Z,15.00
2019-04-21T07:03:54.977Z,14.99
2019-04-21T07:04:29.599Z,15.06
2019-04-21T07:05:38.859Z,15.06
2019-04-21T07:06:31.920Z,15.09
2019-04-21T07:07:27.926Z,15.18
2019-04-21T07:09:45.408Z,15.29
2019-04-21T07:10:26.627Z,15.36
2019-04-21T07:11:27.054Z,15.31
2019-04-21T07:12:30.743Z,15.43
2019-04-21T07:13:25.121Z,15.44
2019-04-21T07:14:32.072Z,15.47
2019-04-21T07:15:31.796Z,15.51
2019-04-21T07:16:37.165Z,15.57
2019-04-21T07:17:29.422Z,15.70
2019-04-21T07:18:37.101Z,15.62
2019-04-21T07:20:29.777Z,15.76
2019-04-21T07:21:27.601Z,15.83
2019-04-21T07:22:35.407Z,15.80
2019-04-21T07:23:32.284Z,15.84
2019-04-21T07:24:31.532Z,15.97
2019-04-21T07:25:32.859Z,16.04
2019-04-21T07:26:31.125Z,16.09
2019-04-21T07:27:29.190Z,16.10
2019-04-21T07:28:31.951Z,16.15
2019-04-21T07:29:34.853Z,16.29
2019-04-21T07:30:31.721Z,16.28
2019-04-21T07:31:31.717Z,16.36
2019-04-21T07:32:27.399Z,16.29
2019-04-21T07:33:50.913Z,16.53
2019-04-21T07:34:36.398Z,16.54
2019-04-21T07:35:28.580Z,16.58
2019-04-21T07:36:38.135Z,16.61
2019-04-21T07:37:33.213Z,16.61
2019-04-21T07:38:31.407Z,16.72
2019-04-21T07:39:22.654Z,16.81
2019-04-21T07:40:23.197Z,16.86
2019-04-21T07:41:22.232Z,16.84
2019-04-21T07:42:23.856Z,16.94
2019-04-21T07:43:20.442Z,17.04
2019-04-21T07:44:25.708Z,17.01
2019-04-21T07:45:23.018Z,17.05
2019-04-21T07:46:19.662Z,17.19
2019-04-21T07:47:29.509Z,17.14
2019-04-21T07:48:24.686Z,17.08
2019-04-21T07:49:25.136Z,17.14
2019-04-21T07:50:28.607Z,17.22
2019-04-21T07:51:33.957Z,17.29
2019-04-21T07:52:28.568Z,17.27
2019-04-21T07:53:36.745Z,17.34
2019-04-21T07:54:54.072Z,17.41
2019-04-21T07:56:11.923Z,17.52
2019-04-21T07:57:23.467Z,17.54
2019-04-21T07:59:39.802Z,17.64
2019-04-21T08:00:38.984Z,17.67
2019-04-21T08:01:45.342Z,17.74
2019-04-21T08:02:27.461Z,17.76
2019-04-21T08:03:30.036Z,17.82
2019-04-21T08:04:46.645Z,17.83
2019-04-21T08:05:24.844Z,17.79
2019-04-21T08:06:33.644Z,17.89
2019-04-21T08:07:32.311Z,17.85
2019-04-21T08:08:21.122Z,17.95
2019-04-21T08:09:27.553Z,18.03
2019-04-21T08:10:23.849Z,18.00
2019-04-21T08:11:21.023Z,18.13
2019-04-21T08:12:22.949Z,18.07
2019-04-21T08:13:38.213Z,18.16
2019-04-21T08:14:33.600Z,18.19
2019-04-21T08:15:27.669Z,18.18
2019-04-21T08:17:23.419Z,18.28
2019-04-21T08:18:28.656Z,18.37
2019-04-21T08:19:29.448Z,18.37
2019-04-21T08:20:24.773Z,18.41
2019-04-21T08:21:30.844Z,18.49
2019-04-21T08:22:30.723Z,18.47
2019-04-21T08:23:25.638Z,18.44
2019-04-21T08:24:27.434Z,18.55
2019-04-21T08:25:27.398Z,18.56
2019-04-21T08:26:24.269Z,18.60
2019-04-21T08:27:29.876Z,18.56
2019-04-21T08:28:25.953Z,18.68
2019-04-21T08:30:43.201Z,18.70
2019-04-21T08:31:35.511Z,18.66
2019-04-21T08:32:36.491Z,18.77
2019-04-21T08:33:31.970Z,18.71
2019-04-21T08:34:28.363Z,18.81
2019-04-21T08:37:26.027Z,18.96
2019-04-21T08:38:28.480Z,19.02
2019-04-21T08:39:33.123Z,19.09
2019-04-21T08:40:31.553Z,19.07
2019-04-21T08:41:23.068Z,19.14
2019-04-21T08:42:25.412Z,19.15
2019-04-21T08:43:39.351Z,19.19
2019-04-21T08:44:33.929Z,19.26
2019-04-21T08:45:28.153Z,19.22
2019-04-21T08:46:27.299Z,19.27
2019-04-21T08:47:25.584Z,19.40
2019-04-21T08:48:23.979Z,19.39
2019-04-21T08:49:26.771Z,19.41
2019-04-21T08:50:26.609Z,19.48
2019-04-21T08:51:49.701Z,19.48
2019-04-21T08:52:37.117Z,19.49
2019-04-21T08:53:27.746Z,19.63
2019-04-21T08:54:28.018Z,19.64
2019-04-21T08:55:30.324Z,19.70
2019-04-21T08:56:40.913Z,19.69
2019-04-21T08:57:33.705Z,19.73
2019-04-21T08:58:35.669Z,19.59
2019-04-21T08:59:45.886Z,19.74
2019-04-21T09:00:26.349Z,19.79
2019-04-21T09:01:32.999Z,19.74
2019-04-21T09:02:29.729Z,19.84
2019-04-21T09:03:33.445Z,19.85
2019-04-21T09:04:23.425Z,19.91
2019-04-21T09:05:23.408Z,19.96
2019-04-21T09:06:31.709Z,20.03
2019-04-21T09:07:40.908Z,20.02
2019-04-21T09:08:25.120Z,20.07
2019-04-21T09:09:22.381Z,20.14
2019-04-21T09:10:23.536Z,20.26
2019-04-21T09:11:25.216Z,20.28
2019-04-21T09:12:22.952Z,20.28
2019-04-21T09:13:24.742Z,20.40
2019-04-21T09:14:24.076Z,20.47
2019-04-21T09:15:25.227Z,20.44
2019-04-21T09:16:22.235Z,20.41
2019-04-21T09:17:20.649Z,20.48
2019-04-21T09:18:18.831Z,20.52
2019-04-21T09:19:35.376Z,20.59
2019-04-21T09:20:33.819Z,20.55
2019-04-21T09:21:27.626Z,20.59
2019-04-21T09:22:24.467Z,20.70
2019-04-21T09:23:19.418Z,20.69
2019-04-21T09:24:26.457Z,20.75
2019-04-21T09:25:26.946Z,20.81
2019-04-21T09:26:26.392Z,20.80
2019-04-21T09:27:23.220Z,20.80
2019-04-21T09:28:19.889Z,20.85
2019-04-21T09:29:16.652Z,20.92
2019-04-21T09:30:06.958Z,20.95
2019-04-21T09:31:05.328Z,20.95
2019-04-21T09:32:09.630Z,20.92
2019-04-21T09:33:05.631Z,20.92
2019-04-21T09:34:06.526Z,21.05
2019-04-21T09:35:10.248Z,21.02
2019-04-21T09:36:09.625Z,21.12
2019-04-21T09:37:20.352Z,21.06
2019-04-21T09:38:17.122Z,21.06
2019-04-21T09:39:11.272Z,21.11
2019-04-21T09:40:05.038Z,21.06
2019-04-21T09:41:06.784Z,21.17
2019-04-21T09:42:06.538Z,21.20
2019-04-21T09:43:08.490Z,21.21
2019-04-21T09:44:07.834Z,21.27
2019-04-21T09:45:07.942Z,21.36
2019-04-21T09:46:04.015Z,21.42
2019-04-21T09:47:06.795Z,21.43
2019-04-21T09:48:09.950Z,21.45
2019-04-21T09:49:09.508Z,21.51
2019-04-21T09:50:06.573Z,21.51
2019-04-21T09:51:04.032Z,21.57
2019-04-21T09:52:08.973Z,21.52
2019-04-21T09:53:15.803Z,21.58
2019-04-21T09:54:11.621Z,21.57
2019-04-21T09:55:13.380Z,21.67
2019-04-21T09:56:08.802Z,21.62
2019-04-21T09:57:10.589Z,21.69
2019-04-21T09:58:16.111Z,21.62
2019-04-21T09:59:13.280Z,21.64
2019-04-21T10:00:12.511Z,21.79
2019-04-21T10:01:15.879Z,21.73
2019-04-21T10:02:13.628Z,21.72
2019-04-21T10:03:08.753Z,21.85
2019-04-21T10:04:05.810Z,21.75
2019-04-21T10:05:03.691Z,21.85
2019-04-21T10:06:04.453Z,21.85
2019-04-21T10:07:04.580Z,21.82
2019-04-21T10:08:03.732Z,21.88
2019-04-21T10:09:05.917Z,21.91
2019-04-21T10:10:03.869Z,21.88
2019-04-21T10:11:03.659Z,21.89
2019-04-21T10:12:03.652Z,21.92
2019-04-21T10:13:04.957Z,21.91
2019-04-21T10:14:03.592Z,21.99
2019-04-21T10:15:04.279Z,21.95
2019-04-21T10:16:03.578Z,22.00
2019-04-21T10:17:04.688Z,22.04
2019-04-21T10:18:03.584Z,22.02
2019-04-21T10:19:04.637Z,22.17
2019-04-21T10:20:03.525Z,22.15
2019-04-21T10:21:03.507Z,22.13
2019-04-21T10:22:05.594Z,22.11
2019-04-21T10:23:03.487Z,22.30
2019-04-21T10:24:04.158Z,22.25
2019-04-21T10:25:04.631Z,22.29
2019-04-21T10:26:04.255Z,22.28
2019-04-21T10:27:05.252Z,22.30
2019-04-21T10:28:03.433Z,22.35
2019-04-21T10:29:12.837Z,22.41
2019-04-21T10:30:05.448Z,22.39
2019-04-21T10:31:04.731Z,22.41
2019-04-21T10:32:03.643Z,22.36
2019-04-21T10:33:04.015Z,22.44
2019-04-21T10:34:03.367Z,22.47
2019-04-21T10:35:03.362Z,22.48
2019-04-21T10:36:04.581Z,22.55
2019-04-21T10:37:03.333Z,22.54
2019-04-21T10:38:16.997Z,22.59
2019-04-21T10:39:04.355Z,22.59
2019-04-21T10:40:03.591Z,22.68
2019-04-21T10:41:03.558Z,22.60
2019-04-21T10:42:03.579Z,22.60
2019-04-21T10:43:03.897Z,22.63
2019-04-21T10:44:03.289Z,22.63
2019-04-21T10:45:03.397Z,22.66
2019-04-21T10:46:04.395Z,22.62
2019-04-21T10:47:04.679Z,22.55
2019-04-21T10:48:03.207Z,22.57
2019-04-21T10:49:04.351Z,22.59
2019-04-21T10:50:04.469Z,22.59
2019-04-21T10:51:03.279Z,22.62
2019-04-21T10:52:03.161Z,22.62
2019-04-21T10:53:03.159Z,22.66
2019-04-21T10:54:04.062Z,22.68
2019-04-21T10:55:18.125Z,22.69
2019-04-21T10:56:15.415Z,22.69
2019-04-21T10:57:04.307Z,22.83
2019-04-21T10:58:04.400Z,22.80
2019-04-21T10:59:04.427Z,22.72
2019-04-21T11:00:04.472Z,22.83
2019-04-21T11:01:04.191Z,22.83
2019-04-21T11:02:03.184Z,22.84
2019-04-21T11:03:04.409Z,22.78
2019-04-21T11:04:03.101Z,22.90
2019-04-21T11:05:03.045Z,22.87
2019-04-21T11:06:03.325Z,22.85
2019-04-21T11:07:06.683Z,22.84
2019-04-21T11:08:14.840Z,22.94
2019-04-21T11:09:05.485Z,22.94
2019-04-21T11:10:04.380Z,22.93
2019-04-21T11:11:03.773Z,22.96
2019-04-21T11:12:04.097Z,23.02
2019-04-21T11:13:02.956Z,23.06
2019-04-21T11:14:04.259Z,23.06
2019-04-21T11:15:03.292Z,23.00
2019-04-21T11:16:03.398Z,23.05
2019-04-21T11:17:04.006Z,23.02
2019-04-21T11:18:03.987Z,22.99
2019-04-21T11:19:04.047Z,23.00
2019-04-21T11:20:02.853Z,23.00
2019-04-21T11:21:03.103Z,23.00
2019-04-21T11:22:03.009Z,23.02
2019-04-21T11:23:02.891Z,23.08
2019-04-21T11:24:03.960Z,23.06
2019-04-21T11:25:03.112Z,23.09
2019-04-21T11:26:04.267Z,23.13
2019-04-21T11:27:02.778Z,23.12
2019-04-21T11:28:02.985Z,23.13
2019-04-21T11:29:03.188Z,23.21
2019-04-21T11:30:02.742Z,23.20
2019-04-21T11:31:02.741Z,23.20
2019-04-21T11:32:03.052Z,23.25
2019-04-21T11:33:03.555Z,23.25
2019-04-21T11:34:03.017Z,23.31
2019-04-21T11:35:03.348Z,23.24
2019-04-21T11:36:03.586Z,23.15
2019-04-21T11:37:03.860Z,23.31
2019-04-21T11:38:08.391Z,23.28
2019-04-21T11:39:19.371Z,23.23
2019-04-21T11:40:09.155Z,23.13
2019-04-21T11:41:03.621Z,23.27
2019-04-21T11:42:03.744Z,23.23
2019-04-21T11:43:03.864Z,23.31
2019-04-21T11:44:03.428Z,23.27
2019-04-21T11:45:04.043Z,23.24
2019-04-21T11:46:02.656Z,23.32
2019-04-21T11:47:02.661Z,23.28
2019-04-21T11:48:03.932Z,23.31
2019-04-21T11:49:02.535Z,23.31
2019-04-21T11:50:03.358Z,23.37
2019-04-21T11:51:02.514Z,23.34
2019-04-21T11:52:02.952Z,23.27
2019-04-21T11:53:03.160Z,23.36
2019-04-21T11:54:02.520Z,23.36
2019-04-21T11:55:04.652Z,23.28
2019-04-21T11:56:02.874Z,23.37
2019-04-21T11:57:11.836Z,23.23
2019-04-21T11:58:03.597Z,23.31
2019-04-21T11:59:03.732Z,23.36
2019-04-21T12:00:03.812Z,23.36
2019-04-21T12:01:03.454Z,23.41
2019-04-21T12:02:03.531Z,23.27
2019-04-21T12:03:03.683Z,23.37
2019-04-21T12:04:03.408Z,23.46
2019-04-21T12:05:03.504Z,23.48
2019-04-21T12:06:03.558Z,23.47
2019-04-21T12:07:02.332Z,23.54
2019-04-21T12:08:02.347Z,23.43
2019-04-21T12:09:04.571Z,23.43
2019-04-21T12:10:03.702Z,23.56
2019-04-21T12:11:03.240Z,23.59
2019-04-21T12:12:03.395Z,23.63
2019-04-21T12:13:05.555Z,23.61
2019-04-21T12:14:03.776Z,23.65
2019-04-21T12:15:02.248Z,23.68
2019-04-21T12:16:03.165Z,23.69
2019-04-21T12:17:02.682Z,23.66
2019-04-21T12:18:02.214Z,23.68
2019-04-21T12:19:03.025Z,23.74
2019-04-21T12:20:03.287Z,23.69
2019-04-21T12:21:03.268Z,23.78
2019-04-21T12:22:11.008Z,23.83
2019-04-21T12:23:04.560Z,23.80
2019-04-21T12:24:02.688Z,23.84
2019-04-21T12:25:03.042Z,23.93
2019-04-21T12:26:03.140Z,23.95
2019-04-21T12:27:02.330Z,23.96
2019-04-21T12:28:02.122Z,24.18
2019-04-21T12:29:02.113Z,24.39
2019-04-21T12:30:02.180Z,24.69
2019-04-21T12:31:03.259Z,25.11
2019-04-21T12:32:03.423Z,25.65
2019-04-21T12:33:02.299Z,26.34
2019-04-21T12:34:02.050Z,26.90
2019-04-21T12:35:02.029Z,27.48
2019-04-21T12:36:02.051Z,28.04
2019-04-21T12:37:02.022Z,28.49
2019-04-21T12:38:02.783Z,28.86
2019-04-21T12:39:04.864Z,29.19
2019-04-21T12:40:03.264Z,29.51
2019-04-21T12:41:02.417Z,29.86
2019-04-21T12:42:02.635Z,30.02
2019-04-21T12:43:02.922Z,30.30
2019-04-21T12:44:02.533Z,30.54
2019-04-21T12:45:01.994Z,30.75
2019-04-21T12:46:02.209Z,30.84
2019-04-21T12:47:01.890Z,31.02
2019-04-21T12:48:02.206Z,31.27
2019-04-21T12:49:02.217Z,31.28
2019-04-21T12:50:02.747Z,31.47
2019-04-21T12:51:03.807Z,31.55
2019-04-21T12:52:02.033Z,31.74
2019-04-21T12:53:03.206Z,31.94
2019-04-21T12:54:01.823Z,32.04
2019-04-21T12:55:01.890Z,32.33
2019-04-21T12:56:02.200Z,32.52
2019-04-21T12:57:01.790Z,32.68
2019-04-21T12:58:01.780Z,32.82
2019-04-21T12:59:01.864Z,32.93
2019-04-21T13:00:02.907Z,33.02
2019-04-21T13:01:02.949Z,32.89
2019-04-21T13:02:03.192Z,32.80
2019-04-21T13:03:01.792Z,32.86
2019-04-21T13:04:01.896Z,32.70
2019-04-21T13:05:02.129Z,32.68
2019-04-21T13:06:01.699Z,32.73
2019-04-21T13:07:01.703Z,32.73
2019-04-21T13:08:01.706Z,32.70
2019-04-21T13:09:05.822Z,32.70
2019-04-21T13:10:04.264Z,32.67
2019-04-21T13:11:02.278Z,32.58
2019-04-21T13:12:01.638Z,32.56
2019-04-21T13:13:01.813Z,32.40
2019-04-21T13:14:01.894Z,32.41
2019-04-21T13:15:04.035Z,32.26
2019-04-21T13:16:01.635Z,32.29
2019-04-21T13:17:01.590Z,32.18
2019-04-21T13:18:02.677Z,32.19
2019-04-21T13:19:02.937Z,32.21
2019-04-21T13:20:01.568Z,32.21
2019-04-21T13:21:02.708Z,32.14
2019-04-21T13:22:01.714Z,32.23
2019-04-21T13:23:01.909Z,32.36
2019-04-21T13:24:01.517Z,32.43
2019-04-21T13:25:02.369Z,32.30
2019-04-21T13:26:04.149Z,32.12
2019-04-21T13:27:03.244Z,31.80
2019-04-21T13:28:02.774Z,31.52
2019-04-21T13:29:02.589Z,31.21
2019-04-21T13:30:02.211Z,30.83
2019-04-21T13:31:02.299Z,30.70
2019-04-21T13:32:03.709Z,30.61
2019-04-21T13:33:02.934Z,30.32
2019-04-21T13:34:02.161Z,30.19
2019-04-21T13:35:01.424Z,30.03
2019-04-21T13:36:02.831Z,30.00
2019-04-21T13:37:01.590Z,29.81
2019-04-21T13:38:02.672Z,29.97
2019-04-21T13:39:33.083Z,29.86
2019-04-21T13:40:24.852Z,29.82
2019-04-21T13:41:18.954Z,29.81
2019-04-21T13:42:11.049Z,29.72
2019-04-21T13:43:05.798Z,29.65
2019-04-21T13:44:01.316Z,29.53
2019-04-21T13:45:03.003Z,29.29
2019-04-21T13:46:01.860Z,29.17
2019-04-21T13:47:02.641Z,29.05
2019-04-21T13:48:01.287Z,29.02
2019-04-21T13:49:01.255Z,28.86
2019-04-21T13:50:03.146Z,28.79
2019-04-21T13:51:01.561Z,28.67
2019-04-21T13:52:02.545Z,28.70
2019-04-21T13:53:02.694Z,28.54
2019-04-21T13:54:01.961Z,28.74
2019-04-21T13:55:01.362Z,28.93
2019-04-21T13:56:02.612Z,28.97
2019-04-21T13:57:02.688Z,29.02
2019-04-21T13:58:02.113Z,29.13
2019-04-21T13:59:02.266Z,29.12
2019-04-21T14:00:01.441Z,29.01